メインページ
METAR-TAF:

METAR-TAF

空港 :

バンギ・ムポコ国際空港

バンギ, 中央アフリカ共和国

緯度: 04-24N, 経度: 018-31E, 海抜: 365m

現時点の気象観測

当レポートは1時間20分前の08:00(UTC)に作成
変向風 3kt
気温 25°C
湿度 79%
気圧 1015 hPa
視程10km以上
高度1300ftの千切れ雲あり

METAR: FEFF 200800Z VRB03KT 9999 BKN013 25/21 Q1015 BECMG BKN016

時間: 10:20 (09:20 UTC)

予報

当レポートは4時間20分前の05:00(UTC)に作成
予報は20日の 06時(UTC)から 21日の 12時(UTC)まで有効
の風 kt
視程: 3000m
高度300ftの雲はほとんどない
20日の 0700時(UTC)から
南西の風 10kt
視程10km以上
高度500ftの千切れ雲あり
20日の 08時(UTC)から 20日の 10時(UTC)まで徐々に
高度1000ftの千切れ雲あり
20日の 11時(UTC)から 20日の 13時(UTC)まで徐々に
高度2300ftの千切れ雲あり
高度3300ftの雲はほとんどない, 積乱雲.
20日の 15時(UTC)から 21日の 02時(UTC)まで一時的に
激しい雷雨
確率 30%
20日の 17時(UTC)から 20日の 23時(UTC)まで
変向風 15kt
視程: 4000m
激しい雷雨, 雨

TAF: FEFF 200500Z 2006/2112 00000KT 3000 BR FEW003 FM200700 22010KT 9999 BKN005 BECMG 2008/2010 BKN010 BECMG 2011/2013 BKN023 FEW033CB TEMPO 2015/2102 TS PROB30 2017/2023 VRB15KT 4000 TSRA

4,000以上の空港の気象観測と天気予報(METAR報とTAF報)

利用可能な観測所は地図上に黄色い丸と赤い丸で示す。

丸の上にカーソルを重ねると観測所名を参照できる。

次にクリックすると気象観測と天気予報を参照できる。

マップの切り替え:黒色「×」印の緑ボタンをクリックして拡大、「-」印の緑ボタンをクリックして縮小、緑色の三角印をクリックして隣りの地図に切り替え


METAR-TAF: